Time;durP1;ratioP1;P1;durP2;ratioP2;P2;SDS_P1;SDS_P2;PMS_P1;PMS_P2;Temp;Humidity;BMP_temperature;BMP_pressure;BME280_temperature;BME280_humidity;BME280_pressure;Samples;Min_cycle;Max_cycle;Signal;HPM_P1;HPM_P2
2023/09/30 00:04:44;;;;;;;13.93;6.80;;;13.10;99.70;;;;;;20692645;28;20120;-42
2023/09/30 00:14:45;;;;;;;14.00;7.50;;;13.10;99.90;;;;;;20697690;28;20038;-42
2023/09/30 00:24:45;;;;;;;12.60;7.30;;;13.20;99.20;;;;;;20682315;28;20148;-42
2023/09/30 00:34:46;;;;;;;14.02;7.50;;;13.10;97.90;;;;;;20695476;28;20045;-42
2023/09/30 00:44:47;;;;;;;14.40;7.22;;;13.10;95.90;;;;;;20693021;28;20045;-42
2023/09/30 00:54:48;;;;;;;13.50;7.88;;;13.10;98.70;;;;;;20691974;28;20394;-42
2023/09/30 01:04:50;;;;;;;15.15;8.25;;;13.10;99.30;;;;;;20682138;28;20296;-42
2023/09/30 01:14:50;;;;;;;15.52;8.88;;;12.90;99.90;;;;;;20689128;28;20480;-42
2023/09/30 01:24:51;;;;;;;17.00;8.77;;;12.90;99.90;;;;;;20699371;28;20050;-42
2023/09/30 01:34:51;;;;;;;14.17;8.87;;;12.90;99.90;;;;;;20706113;28;20037;-42
2023/09/30 01:44:52;;;;;;;14.07;8.02;;;12.80;99.90;;;;;;20706810;28;20507;-42
2023/09/30 01:54:54;;;;;;;17.92;9.82;;;12.80;99.90;;;;;;20705194;28;20120;-42
2023/09/30 02:04:54;;;;;;;18.25;11.02;;;12.90;99.90;;;;;;20701736;28;20049;-42
2023/09/30 02:14:55;;;;;;;19.88;10.52;;;12.90;99.90;;;;;;20700784;28;20033;-42
2023/09/30 02:24:55;;;;;;;21.90;11.30;;;12.90;99.90;;;;;;20702108;28;20045;-42
2023/09/30 02:34:56;;;;;;;19.03;11.87;;;13.00;99.90;;;;;;20708236;28;20247;-42
2023/09/30 02:44:59;;;;;;;22.00;12.05;;;13.20;99.90;;;;;;20703764;28;20676;-42
2023/09/30 02:55:00;;;;;;;20.38;12.63;;;13.30;99.90;;;;;;20703930;28;20482;-42
2023/09/30 03:05:02;;;;;;;22.05;12.95;;;13.30;99.90;;;;;;20703256;28;20781;-42
2023/09/30 03:15:04;;;;;;;23.38;14.45;;;13.30;99.90;;;;;;20699403;28;20398;-42
2023/09/30 03:25:06;;;;;;;22.33;13.57;;;13.30;99.90;;;;;;20703073;28;20629;-42
2023/09/30 03:35:14;;;;;;;21.42;13.38;;;13.50;99.90;;;;;;20703633;28;20214;-42
2023/09/30 03:45:15;;;;;;;19.55;12.65;;;13.50;99.90;;;;;;20691302;28;20129;-42
2023/09/30 03:55:17;;;;;;;22.33;14.70;;;13.40;99.90;;;;;;20698215;28;20083;-42
2023/09/30 04:05:18;;;;;;;24.88;14.60;;;13.50;99.90;;;;;;20695217;28;20124;-42
2023/09/30 04:15:19;;;;;;;24.52;14.35;;;13.50;99.90;;;;;;20693027;28;20649;-42
2023/09/30 04:25:20;;;;;;;16.77;12.38;;;13.60;99.90;;;;;;20695601;28;20593;-42
2023/09/30 04:35:21;;;;;;;26.42;15.23;;;13.40;99.90;;;;;;20690001;28;20037;-42
2023/09/30 04:45:24;;;;;;;22.48;14.95;;;13.40;99.90;;;;;;20688146;28;20495;-41
2023/09/30 04:55:24;;;;;;;23.63;15.68;;;13.30;99.90;;;;;;20688761;28;20029;-41
2023/09/30 05:05:25;;;;;;;24.80;15.30;;;13.30;99.90;;;;;;20711482;28;20045;-42
2023/09/30 05:15:25;;;;;;;24.63;14.80;;;13.30;99.90;;;;;;20709529;28;20033;-41
2023/09/30 05:25:27;;;;;;;20.05;13.82;;;13.30;99.90;;;;;;20704695;28;20052;-42
2023/09/30 05:35:28;;;;;;;22.88;14.25;;;13.20;99.90;;;;;;20702702;28;20049;-42
2023/09/30 05:45:33;;;;;;;27.10;15.30;;;13.20;99.90;;;;;;20708512;28;20250;-42
2023/09/30 05:55:34;;;;;;;25.27;15.98;;;13.20;99.90;;;;;;20704921;28;20044;-42
2023/09/30 06:05:40;;;;;;;25.23;16.40;;;13.20;99.90;;;;;;20711357;28;20073;-42
2023/09/30 06:15:41;;;;;;;22.13;14.38;;;13.10;99.90;;;;;;20703953;28;20037;-42
2023/09/30 06:25:42;;;;;;;29.58;18.02;;;13.20;99.90;;;;;;20683936;28;20111;-42
2023/09/30 06:35:50;;;;;;;29.05;17.88;;;13.20;99.90;;;;;;20724165;28;20034;-42
2023/09/30 06:45:51;;;;;;;29.35;18.70;;;13.30;99.90;;;;;;20632516;28;20334;-42
2023/09/30 06:55:52;;;;;;;27.35;18.20;;;13.50;99.90;;;;;;20616124;28;20273;-42
2023/09/30 07:05:54;;;;;;;26.83;16.35;;;13.70;99.90;;;;;;20602582;28;20081;-41
2023/09/30 07:15:54;;;;;;;28.33;20.33;;;13.60;99.90;;;;;;20675280;28;20045;-41
2023/09/30 07:25:55;;;;;;;30.80;18.40;;;14.00;99.90;;;;;;20710107;28;20050;-41
2023/09/30 07:35:55;;;;;;;28.65;18.58;;;14.10;99.90;;;;;;20701646;28;20485;-41
2023/09/30 07:45:56;;;;;;;28.27;17.57;;;14.50;99.90;;;;;;20628940;28;20058;-41
2023/09/30 07:55:56;;;;;;;23.13;14.95;;;14.70;99.90;;;;;;20610790;28;21028;-41
2023/09/30 08:05:58;;;;;;;25.35;15.60;;;14.80;99.90;;;;;;20631110;28;21251;-41
2023/09/30 08:15:59;;;;;;;29.63;17.60;;;14.80;99.90;;;;;;20609507;28;20042;-41
2023/09/30 08:26:00;;;;;;;25.77;15.25;;;14.90;99.90;;;;;;20615304;28;20140;-41
2023/09/30 08:36:07;;;;;;;20.20;12.50;;;15.60;99.90;;;;;;20620082;28;20467;-41
2023/09/30 08:46:07;;;;;;;21.37;12.53;;;16.20;87.00;;;;;;20634640;28;20070;-41
2023/09/30 08:56:10;;;;;;;19.13;10.77;;;16.40;63.50;;;;;;20628473;28;20045;-41
2023/09/30 09:06:10;;;;;;;17.63;10.68;;;16.50;51.40;;;;;;20634737;28;20148;-41
2023/09/30 09:16:11;;;;;;;17.50;9.90;;;16.80;21.80;;;;;;20636310;28;20038;-41
2023/09/30 09:26:24;;;;;;;16.23;9.48;;;17.20;1.00;;;;;;20636336;28;20120;-41
2023/09/30 09:36:54;;;;;;;14.70;9.13;;;17.40;1.00;;;;;;20636047;28;20042;-42
2023/09/30 09:46:57;;;;;;;15.30;8.02;;;17.70;1.00;;;;;;20644902;28;20062;-42
2023/09/30 09:57:00;;;;;;;13.32;8.05;;;17.90;1.00;;;;;;20635592;28;20095;-41
2023/09/30 10:07:02;;;;;;;14.10;8.57;;;18.10;1.00;;;;;;20629677;28;20137;-41
2023/09/30 10:17:03;;;;;;;14.23;8.98;;;18.20;1.00;;;;;;20626939;28;20054;-41
2023/09/30 10:27:34;;;;;;;14.35;6.72;;;18.30;1.00;;;;;;20621722;28;20070;-41
2023/09/30 10:37:35;;;;;;;10.32;5.13;;;18.50;1.00;;;;;;20630763;28;20042;-42
2023/09/30 10:47:36;;;;;;;11.07;4.20;;;18.80;1.00;;;;;;20639163;28;20047;-42
2023/09/30 10:57:37;;;;;;;8.82;2.90;;;19.20;1.00;;;;;;20658564;28;20434;-42
2023/09/30 11:07:40;;;;;;;9.55;4.10;;;19.20;1.00;;;;;;20664098;28;20054;-42
2023/09/30 11:17:40;;;;;;;7.28;3.03;;;18.80;1.00;;;;;;20669454;28;20464;-42
2023/09/30 11:27:41;;;;;;;10.85;3.13;;;18.50;1.00;;;;;;20664549;28;20046;-41
2023/09/30 11:37:44;;;;;;;7.43;2.40;;;18.20;1.00;;;;;;20668243;28;20042;-42
2023/09/30 11:47:45;;;;;;;6.43;2.38;;;18.00;1.00;;;;;;20665791;28;20088;-41
2023/09/30 11:57:45;;;;;;;4.97;1.83;;;17.70;1.00;;;;;;20612809;28;20033;-41
2023/09/30 12:07:46;;;;;;;7.03;2.08;;;17.60;1.00;;;;;;20622321;28;20493;-41
2023/09/30 12:17:47;;;;;;;7.80;2.40;;;17.50;1.00;;;;;;20628493;28;20104;-41
2023/09/30 12:27:48;;;;;;;6.15;1.80;;;17.60;1.00;;;;;;20617499;28;20449;-42
2023/09/30 12:37:50;;;;;;;8.32;1.80;;;17.60;1.00;;;;;;20626124;28;20057;-41
2023/09/30 12:47:52;;;;;;;8.52;2.75;;;17.90;1.00;;;;;;20625103;28;20985;-41
2023/09/30 12:57:55;;;;;;;7.93;3.05;;;19.10;1.00;;;;;;20652858;28;20188;-41
2023/09/30 13:07:57;;;;;;;9.98;3.15;;;19.90;1.00;;;;;;20655512;28;20514;-41
2023/09/30 13:17:58;;;;;;;9.38;2.97;;;20.30;1.00;;;;;;20662924;28;20042;-42
2023/09/30 13:27:59;;;;;;;8.57;3.08;;;20.50;1.00;;;;;;20675601;28;20062;-42
2023/09/30 13:38:00;;;;;;;7.70;2.87;;;20.60;1.00;;;;;;20656934;28;20042;-42
2023/09/30 13:48:01;;;;;;;8.77;3.03;;;20.70;1.00;;;;;;20650780;28;20074;-42
2023/09/30 13:58:02;;;;;;;8.50;2.60;;;20.30;1.00;;;;;;20660818;28;20049;-42
2023/09/30 14:08:03;;;;;;;9.15;3.42;;;20.00;1.00;;;;;;20631941;28;20489;-42
2023/09/30 14:18:04;;;;;;;11.27;3.50;;;20.50;1.00;;;;;;20619995;28;20413;-41
2023/09/30 14:28:05;;;;;;;8.45;3.42;;;20.60;1.00;;;;;;20640286;28;20473;-41
2023/09/30 14:38:05;;;;;;;10.05;3.20;;;20.40;1.00;;;;;;20635101;28;20400;-41
2023/09/30 14:48:07;;;;;;;11.45;3.13;;;20.20;1.00;;;;;;20637395;28;20042;-41
2023/09/30 14:58:08;;;;;;;7.22;2.97;;;20.30;1.00;;;;;;20625337;28;20095;-41
2023/09/30 15:08:10;;;;;;;6.78;2.55;;;20.00;1.00;;;;;;20639583;28;20042;-42
2023/09/30 15:18:10;;;;;;;9.82;3.15;;;19.80;1.00;;;;;;20650541;28;20092;-41
2023/09/30 15:28:12;;;;;;;10.25;3.38;;;19.80;1.00;;;;;;20635488;28;20042;-42
2023/09/30 15:38:13;;;;;;;10.70;3.83;;;19.60;1.00;;;;;;20632543;28;20485;-42
2023/09/30 15:48:13;;;;;;;10.68;3.28;;;19.20;1.00;;;;;;20646734;28;20046;-41
2023/09/30 15:58:15;;;;;;;8.27;2.92;;;19.10;1.00;;;;;;20662018;28;20503;-41
2023/09/30 16:08:15;;;;;;;7.07;2.55;;;18.90;1.00;;;;;;20668162;28;20045;-41
2023/09/30 16:18:16;;;;;;;11.70;3.10;;;18.60;1.00;;;;;;20667630;28;20046;-41
2023/09/30 16:28:17;;;;;;;13.05;3.40;;;18.50;1.00;;;;;;20652289;28;20519;-42
2023/09/30 16:38:21;;;;;;;8.30;3.17;;;18.40;1.00;;;;;;20624655;28;20042;-42
2023/09/30 16:48:21;;;;;;;10.98;3.47;;;18.20;1.00;;;;;;20621646;28;20038;-42
2023/09/30 16:58:22;;;;;;;10.68;3.38;;;18.10;1.00;;;;;;20648453;28;20038;-41
2023/09/30 17:08:23;;;;;;;8.63;3.50;;;17.90;1.00;;;;;;20643026;28;20043;-41
2023/09/30 17:18:23;;;;;;;9.43;3.47;;;17.70;1.00;;;;;;20674107;28;20053;-41
2023/09/30 17:28:26;;;;;;;10.43;3.55;;;17.60;1.00;;;;;;20673925;28;20530;-41
2023/09/30 17:38:28;;;;;;;12.23;3.80;;;17.20;1.00;;;;;;20676489;28;20132;-41
2023/09/30 17:48:28;;;;;;;11.38;4.03;;;16.90;1.00;;;;;;20669678;28;20504;-41
2023/09/30 17:58:29;;;;;;;11.45;3.30;;;16.90;1.00;;;;;;20678197;28;20065;-41
2023/09/30 18:08:29;;;;;;;10.95;3.85;;;16.70;1.00;;;;;;20674538;28;20049;-41
2023/09/30 18:18:33;;;;;;;11.55;3.70;;;16.60;1.00;;;;;;20677274;28;20043;-41
2023/09/30 18:28:34;;;;;;;7.65;3.85;;;16.50;1.00;;;;;;20671444;28;20421;-41
2023/09/30 18:38:35;;;;;;;8.60;3.70;;;16.40;1.00;;;;;;20670853;28;20129;-41
2023/09/30 18:48:36;;;;;;;12.15;4.93;;;16.40;1.00;;;;;;20670581;28;20486;-41
2023/09/30 18:58:37;;;;;;;11.07;4.47;;;16.20;1.00;;;;;;20672074;28;20038;-41
2023/09/30 19:08:37;;;;;;;9.25;4.32;;;16.20;1.00;;;;;;20670812;28;20046;-41
2023/09/30 19:18:38;;;;;;;8.13;4.50;;;16.20;1.00;;;;;;20667917;28;20030;-41
2023/09/30 19:28:39;;;;;;;9.95;5.30;;;16.10;1.00;;;;;;20667392;28;22180;-41
2023/09/30 19:38:40;;;;;;;13.18;5.72;;;16.00;1.00;;;;;;20669603;28;20457;-41
2023/09/30 19:48:40;;;;;;;16.40;7.00;;;15.90;1.00;;;;;;20669101;28;20517;-41
2023/09/30 19:58:41;;;;;;;16.30;7.03;;;15.80;1.00;;;;;;20665910;28;20030;-41
2023/09/30 20:08:41;;;;;;;13.00;7.32;;;15.90;1.00;;;;;;20665574;28;20369;-41
2023/09/30 20:18:42;;;;;;;15.30;7.95;;;15.90;1.00;;;;;;20667557;28;20469;-41
2023/09/30 20:28:45;;;;;;;16.33;9.93;;;16.00;1.00;;;;;;20665530;28;20054;-41
2023/09/30 20:38:45;;;;;;;13.80;8.43;;;16.10;1.00;;;;;;20664816;28;20038;-41
2023/09/30 20:48:47;;;;;;;13.20;7.40;;;16.10;1.00;;;;;;20664270;28;20045;-41
2023/09/30 20:58:50;;;;;;;10.90;6.07;;;16.10;1.00;;;;;;20664333;28;20038;-41
2023/09/30 21:08:51;;;;;;;19.60;9.70;;;16.00;1.00;;;;;;20661056;28;20557;-41
2023/09/30 21:18:52;;;;;;;23.88;11.75;;;16.00;1.00;;;;;;20662398;28;20099;-41
2023/09/30 21:28:52;;;;;;;14.23;7.03;;;16.00;1.00;;;;;;20662930;28;20465;-41
2023/09/30 21:38:53;;;;;;;17.73;6.63;;;16.10;1.00;;;;;;20665924;28;20648;-41
2023/09/30 21:48:55;;;;;;;13.52;5.85;;;16.20;1.00;;;;;;20674171;28;20448;-41
2023/09/30 21:58:55;;;;;;;8.93;5.30;;;16.20;1.00;;;;;;20678405;28;20045;-41
2023/09/30 22:08:56;;;;;;;14.88;6.30;;;16.20;1.00;;;;;;20667541;28;20050;-41
2023/09/30 22:19:00;;;;;;;14.23;6.07;;;16.30;1.00;;;;;;20655819;28;20034;-41
2023/09/30 22:29:00;;;;;;;14.40;7.60;;;16.30;1.00;;;;;;20646713;28;20531;-41
2023/09/30 22:39:01;;;;;;;13.90;6.40;;;16.40;1.00;;;;;;20647802;28;20445;-41
2023/09/30 22:49:01;;;;;;;14.60;7.05;;;16.40;1.00;;;;;;20663864;28;20046;-41
2023/09/30 22:59:07;;;;;;;11.38;6.40;;;16.40;1.00;;;;;;20644168;28;20042;-41
2023/09/30 23:09:11;;;;;;;16.23;8.98;;;16.40;1.00;;;;;;20644403;28;20042;-41
2023/09/30 23:19:11;;;;;;;17.02;7.47;;;16.30;1.00;;;;;;20631522;28;20558;-41
2023/09/30 23:29:12;;;;;;;13.60;7.43;;;16.30;1.00;;;;;;20623902;28;20054;-41
2023/09/30 23:39:13;;;;;;;14.63;7.82;;;16.40;1.00;;;;;;20626118;28;20046;-41
2023/09/30 23:49:14;;;;;;;12.45;6.47;;;16.40;1.00;;;;;;20629024;28;20141;-41
2023/09/30 23:59:17;;;;;;;13.45;6.63;;;16.20;1.00;;;;;;20622377;28;20037;-41
